createdAt,value
2019-03-15T00:00:47.111Z,41.40
2019-03-15T00:03:52.772Z,41.60
2019-03-15T00:06:58.415Z,41.70
2019-03-15T00:10:05.079Z,41.80
2019-03-15T00:13:10.830Z,41.90
2019-03-15T00:16:16.502Z,42.00
2019-03-15T00:19:22.135Z,42.10
2019-03-15T00:22:27.805Z,42.20
2019-03-15T00:25:33.459Z,42.10
2019-03-15T00:28:39.187Z,42.20
2019-03-15T00:31:44.843Z,42.20
2019-03-15T00:34:50.520Z,42.20
2019-03-15T00:38:04.959Z,42.20
2019-03-15T00:41:11.091Z,42.20
2019-03-15T00:44:16.948Z,42.20
2019-03-15T00:47:22.651Z,42.20
2019-03-15T00:50:28.407Z,43.00
2019-03-15T00:53:34.061Z,42.40
2019-03-15T00:56:41.515Z,42.30
2019-03-15T00:59:47.224Z,42.40
2019-03-15T01:02:52.812Z,42.40
2019-03-15T01:05:58.515Z,42.30
2019-03-15T01:09:05.050Z,42.40
2019-03-15T01:12:10.746Z,42.30
2019-03-15T01:15:16.427Z,42.20
2019-03-15T01:18:22.127Z,42.20
2019-03-15T01:21:27.787Z,42.30
2019-03-15T01:24:33.456Z,42.30
2019-03-15T01:27:39.158Z,42.20
2019-03-15T01:30:44.970Z,42.30
2019-03-15T01:33:50.748Z,42.30
2019-03-15T01:36:56.371Z,42.20
2019-03-15T01:40:02.069Z,42.30
2019-03-15T01:43:07.958Z,42.30
2019-03-15T01:46:13.756Z,42.20
2019-03-15T01:49:19.395Z,42.10
2019-03-15T01:52:25.048Z,42.20
2019-03-15T01:55:30.738Z,42.10
2019-03-15T01:58:36.323Z,42.10
2019-03-15T02:01:42.041Z,42.10
2019-03-15T02:04:48.755Z,42.10
2019-03-15T02:07:54.524Z,42.10
2019-03-15T02:11:00.313Z,42.20
2019-03-15T02:14:06.935Z,42.10
2019-03-15T02:17:13.659Z,42.10
2019-03-15T02:20:19.339Z,42.00
2019-03-15T02:23:25.052Z,42.10
2019-03-15T02:26:32.644Z,42.20
2019-03-15T02:29:38.404Z,42.10
2019-03-15T02:32:44.061Z,42.00
2019-03-15T02:35:49.732Z,42.00
2019-03-15T02:38:55.404Z,42.00
2019-03-15T02:42:01.150Z,42.00
2019-03-15T02:45:07.361Z,42.20
2019-03-15T02:48:13.535Z,41.90
2019-03-15T02:51:19.411Z,42.00
2019-03-15T02:54:25.056Z,41.90
2019-03-15T02:57:30.742Z,41.90
2019-03-15T03:00:37.468Z,41.80
2019-03-15T03:03:43.124Z,41.80
2019-03-15T03:06:48.829Z,41.80
2019-03-15T03:09:54.585Z,41.70
2019-03-15T03:13:00.226Z,41.80
2019-03-15T03:16:05.887Z,41.80
2019-03-15T03:19:11.509Z,41.80
2019-03-15T03:22:17.302Z,41.90
2019-03-15T03:25:22.914Z,41.60
2019-03-15T03:28:28.707Z,42.10
2019-03-15T03:31:34.349Z,41.60
2019-03-15T03:34:40.732Z,41.70
2019-03-15T03:37:46.839Z,41.60
2019-03-15T03:40:52.493Z,41.70
2019-03-15T03:43:58.171Z,41.60
2019-03-15T03:47:03.923Z,41.60
2019-03-15T03:50:09.967Z,41.60
2019-03-15T03:53:15.705Z,41.50
2019-03-15T03:56:21.471Z,41.40
2019-03-15T03:59:27.151Z,41.50
2019-03-15T04:02:33.175Z,41.50
2019-03-15T04:05:38.883Z,41.50
2019-03-15T04:08:44.620Z,41.50
2019-03-15T04:11:55.636Z,41.50
2019-03-15T04:14:57.645Z,41.50
2019-03-15T04:18:06.541Z,41.50
2019-03-15T04:21:10.583Z,41.50
2019-03-15T04:24:16.255Z,41.40
2019-03-15T04:27:21.924Z,41.40
2019-03-15T04:30:27.663Z,41.50
2019-03-15T04:33:33.163Z,41.50
2019-03-15T04:36:40.575Z,41.40
2019-03-15T04:39:46.240Z,41.50
2019-03-15T04:42:53.651Z,41.40
2019-03-15T04:45:59.381Z,41.40
2019-03-15T04:49:05.065Z,41.30
2019-03-15T04:52:10.732Z,41.30
2019-03-15T04:55:17.367Z,41.40
2019-03-15T04:58:24.051Z,41.30
2019-03-15T05:01:29.796Z,41.30
2019-03-15T05:04:35.456Z,41.40
2019-03-15T05:07:41.144Z,41.10
2019-03-15T05:10:46.884Z,41.30
2019-03-15T05:13:52.538Z,41.20
2019-03-15T05:16:58.204Z,41.20
2019-03-15T05:20:04.065Z,41.10
2019-03-15T05:23:09.820Z,41.10
2019-03-15T05:26:15.450Z,41.20
2019-03-15T05:29:21.827Z,41.30
2019-03-15T05:32:27.771Z,41.40
2019-03-15T05:35:34.767Z,41.40
2019-03-15T05:38:40.453Z,41.40
2019-03-15T05:41:46.044Z,41.50
2019-03-15T05:44:51.728Z,41.50
2019-03-15T05:47:57.408Z,41.60
2019-03-15T05:51:04.031Z,41.50
2019-03-15T05:54:09.740Z,41.60
2019-03-15T05:57:15.356Z,41.70
2019-03-15T06:00:20.992Z,41.50
2019-03-15T06:03:26.683Z,41.50
2019-03-15T06:06:34.119Z,41.50
2019-03-15T06:09:40.853Z,41.40
2019-03-15T06:12:46.601Z,41.40
2019-03-15T06:15:52.152Z,41.30
2019-03-15T06:18:57.832Z,41.00
2019-03-15T06:22:03.459Z,41.10
2019-03-15T06:25:09.420Z,40.90
2019-03-15T06:28:15.108Z,40.70
2019-03-15T06:31:20.719Z,40.60
2019-03-15T06:34:28.108Z,40.50
2019-03-15T06:37:33.748Z,40.50
2019-03-15T06:40:39.439Z,40.40
2019-03-15T06:43:45.216Z,40.30
2019-03-15T06:46:51.923Z,40.30
2019-03-15T06:49:57.613Z,40.30
2019-03-15T06:53:03.747Z,40.20
2019-03-15T06:56:09.533Z,40.10
2019-03-15T06:59:15.208Z,40.10
2019-03-15T07:02:20.836Z,40.00
2019-03-15T07:05:26.533Z,39.90
2019-03-15T07:08:32.206Z,39.90
2019-03-15T07:11:37.889Z,39.90
2019-03-15T07:14:43.536Z,39.80
2019-03-15T07:17:49.217Z,39.70
2019-03-15T07:20:54.853Z,39.60
2019-03-15T07:24:00.527Z,39.60
2019-03-15T07:27:12.634Z,39.60
2019-03-15T07:30:13.540Z,39.60
2019-03-15T07:33:19.179Z,38.00
2019-03-15T07:36:25.783Z,37.80
2019-03-15T07:39:33.372Z,38.00
2019-03-15T07:42:39.124Z,38.10
2019-03-15T07:45:44.766Z,38.30
2019-03-15T07:48:50.521Z,38.30
2019-03-15T07:51:56.187Z,38.40
2019-03-15T07:55:01.853Z,38.50
2019-03-15T07:58:07.719Z,38.50
2019-03-15T08:01:13.431Z,38.40
2019-03-15T08:04:19.189Z,38.50
2019-03-15T08:07:35.794Z,38.70
2019-03-15T08:10:32.157Z,38.70
2019-03-15T08:13:39.607Z,38.80
2019-03-15T08:16:45.224Z,38.80
2019-03-15T08:19:50.912Z,39.00
2019-03-15T08:22:56.613Z,38.80
2019-03-15T08:26:02.286Z,38.80
2019-03-15T08:29:09.887Z,39.40
2019-03-15T08:32:15.833Z,39.60
2019-03-15T08:35:24.333Z,43.20
2019-03-15T08:38:29.199Z,44.40
2019-03-15T08:41:34.852Z,43.00
2019-03-15T08:44:40.496Z,43.30
2019-03-15T08:47:46.238Z,43.50
2019-03-15T08:50:52.048Z,43.50
2019-03-15T08:53:57.664Z,43.40
2019-03-15T08:57:03.419Z,43.30
2019-03-15T09:00:10.519Z,43.40
2019-03-15T09:03:27.191Z,43.30
2019-03-15T09:06:25.290Z,43.20
2019-03-15T09:09:30.939Z,43.20
2019-03-15T09:12:36.586Z,43.20
2019-03-15T09:15:42.284Z,43.20
2019-03-15T09:18:48.005Z,43.10
2019-03-15T09:21:53.699Z,43.20
2019-03-15T09:24:59.429Z,43.00
2019-03-15T09:28:05.058Z,43.00
2019-03-15T09:31:10.740Z,43.00
2019-03-15T09:34:18.083Z,43.10
2019-03-15T09:37:23.771Z,43.50
2019-03-15T09:40:29.417Z,43.50
2019-03-15T09:43:35.052Z,43.80
2019-03-15T09:46:40.737Z,42.60
2019-03-15T09:49:47.299Z,41.90
2019-03-15T09:52:53.275Z,42.30
2019-03-15T09:55:58.943Z,42.50
2019-03-15T09:59:04.539Z,42.60
2019-03-15T10:02:10.251Z,42.60
2019-03-15T10:05:16.777Z,42.60
2019-03-15T10:08:23.779Z,43.20
2019-03-15T10:11:29.666Z,42.50
2019-03-15T10:14:35.493Z,42.60
2019-03-15T10:17:41.175Z,42.60
2019-03-15T10:20:48.571Z,42.50
2019-03-15T10:23:55.187Z,42.60
2019-03-15T10:27:00.948Z,42.60
2019-03-15T10:30:07.725Z,42.30
2019-03-15T10:33:13.416Z,42.30
2019-03-15T10:36:20.896Z,42.30
2019-03-15T10:39:26.619Z,42.20
2019-03-15T10:42:32.344Z,42.20
2019-03-15T10:45:38.060Z,42.30
2019-03-15T10:48:43.697Z,42.30
2019-03-15T10:51:49.346Z,42.30
2019-03-15T10:54:55.018Z,42.20
2019-03-15T10:58:02.377Z,42.20
2019-03-15T11:01:08.064Z,42.20
2019-03-15T11:04:13.692Z,42.20
2019-03-15T11:07:23.959Z,42.20
2019-03-15T11:10:29.757Z,42.20
2019-03-15T11:13:35.388Z,42.20
2019-03-15T11:16:42.036Z,42.20
2019-03-15T11:19:47.700Z,42.30
2019-03-15T11:22:55.173Z,42.10
2019-03-15T11:26:12.979Z,42.20
2019-03-15T11:29:08.133Z,42.20
2019-03-15T11:32:13.825Z,42.00
2019-03-15T11:35:21.825Z,42.10
2019-03-15T11:38:27.647Z,42.00
2019-03-15T11:41:33.307Z,42.10
2019-03-15T11:44:39.067Z,42.00
2019-03-15T11:48:01.737Z,42.10
2019-03-15T11:50:52.020Z,41.90
2019-03-15T11:53:57.659Z,41.90
2019-03-15T11:57:03.329Z,41.90
2019-03-15T12:00:10.595Z,41.90
2019-03-15T12:03:16.415Z,41.90
2019-03-15T12:06:22.007Z,41.70
2019-03-15T12:09:27.787Z,41.50
2019-03-15T12:12:33.475Z,41.90
2019-03-15T12:15:39.069Z,41.70
2019-03-15T12:18:44.775Z,41.70
2019-03-15T12:21:50.393Z,41.70
2019-03-15T12:24:56.160Z,41.80
2019-03-15T12:28:01.841Z,41.60
2019-03-15T12:31:09.327Z,41.60
2019-03-15T12:34:15.091Z,41.60
2019-03-15T12:37:20.708Z,41.50
2019-03-15T12:40:26.360Z,41.60
2019-03-15T12:43:32.137Z,41.50
2019-03-15T12:46:37.762Z,41.60
2019-03-15T12:49:43.423Z,41.50
2019-03-15T12:52:49.145Z,41.40
2019-03-15T12:55:56.580Z,41.40
2019-03-15T12:59:02.195Z,41.50
2019-03-15T13:02:07.876Z,41.50
2019-03-15T13:05:13.736Z,41.50
2019-03-15T13:08:19.525Z,41.40
2019-03-15T13:11:25.223Z,41.20
2019-03-15T13:14:30.915Z,41.30
2019-03-15T13:17:36.401Z,41.20
2019-03-15T13:20:43.020Z,41.10
2019-03-15T13:23:48.703Z,41.30
2019-03-15T13:27:06.573Z,41.40
2019-03-15T13:30:01.628Z,41.20
2019-03-15T13:33:19.506Z,41.40
2019-03-15T13:36:16.516Z,41.50
2019-03-15T13:39:22.293Z,41.80
2019-03-15T13:42:27.926Z,42.00
2019-03-15T13:45:34.424Z,41.90
2019-03-15T13:48:40.200Z,41.90
2019-03-15T13:51:45.895Z,41.90
2019-03-15T13:54:51.555Z,41.90
2019-03-15T13:57:57.204Z,42.00
2019-03-15T14:01:02.966Z,42.00
2019-03-15T14:04:08.720Z,42.00
2019-03-15T14:07:14.472Z,42.10
2019-03-15T14:10:20.238Z,42.10
2019-03-15T14:13:26.055Z,42.20
2019-03-15T14:16:33.469Z,42.20
2019-03-15T14:19:39.091Z,42.20
2019-03-15T14:22:44.743Z,42.20
2019-03-15T14:25:50.411Z,42.30
2019-03-15T14:28:56.050Z,42.10
2019-03-15T14:32:02.816Z,42.10
2019-03-15T14:35:09.203Z,42.20
2019-03-15T14:38:15.282Z,42.10
2019-03-15T14:41:21.021Z,42.10
2019-03-15T14:44:26.799Z,42.00
2019-03-15T14:47:32.635Z,42.10
2019-03-15T14:50:38.284Z,42.10
2019-03-15T14:53:43.931Z,42.20
2019-03-15T14:56:49.573Z,42.00
2019-03-15T14:59:55.360Z,42.10
2019-03-15T15:03:01.179Z,42.10
2019-03-15T15:06:06.957Z,42.00
2019-03-15T15:09:12.587Z,42.20
2019-03-15T15:12:18.269Z,42.10
2019-03-15T15:15:24.060Z,42.00
2019-03-15T15:18:29.675Z,42.00
2019-03-15T15:21:35.837Z,42.00
2019-03-15T15:24:41.935Z,42.00
2019-03-15T15:27:49.337Z,42.10
2019-03-15T15:30:55.147Z,42.10
2019-03-15T15:34:00.900Z,42.10
2019-03-15T15:37:06.660Z,42.00
2019-03-15T15:40:12.653Z,42.00
2019-03-15T15:43:19.472Z,42.10
2019-03-15T15:46:26.087Z,42.00
2019-03-15T15:49:34.150Z,42.10
2019-03-15T15:52:40.949Z,42.20
2019-03-15T15:55:47.844Z,42.30
2019-03-15T15:58:55.543Z,42.30
2019-03-15T16:02:02.231Z,42.20
2019-03-15T16:05:08.888Z,42.30
2019-03-15T16:08:17.201Z,42.30
2019-03-15T16:11:24.308Z,42.40
2019-03-15T16:14:32.279Z,42.40
2019-03-15T16:17:45.196Z,42.30
2019-03-15T16:20:54.039Z,42.50
2019-03-15T16:24:00.912Z,42.50
2019-03-15T16:27:07.451Z,42.50
2019-03-15T16:30:17.247Z,42.50
2019-03-15T16:33:23.576Z,42.40
2019-03-15T16:36:30.404Z,42.40
2019-03-15T16:39:37.023Z,42.50
2019-03-15T16:42:45.411Z,42.40
2019-03-15T16:45:52.132Z,42.40
2019-03-15T16:48:59.228Z,42.50
2019-03-15T16:52:06.048Z,42.90
2019-03-15T16:55:13.168Z,42.80
2019-03-15T16:58:19.642Z,42.70
2019-03-15T17:01:26.291Z,42.70
2019-03-15T17:04:33.084Z,42.60
2019-03-15T17:07:39.960Z,42.60
2019-03-15T17:10:45.816Z,42.60
2019-03-15T17:13:51.443Z,42.60
2019-03-15T17:16:57.476Z,42.60
2019-03-15T17:20:05.451Z,42.60
2019-03-15T17:23:12.657Z,42.50
2019-03-15T17:26:19.147Z,42.70
2019-03-15T17:29:25.459Z,43.20
2019-03-15T17:32:32.399Z,42.60
2019-03-15T17:35:40.588Z,43.30
2019-03-15T17:38:48.046Z,42.60
2019-03-15T17:41:55.409Z,42.60
2019-03-15T17:45:01.089Z,42.60
2019-03-15T17:48:06.847Z,42.60
2019-03-15T17:51:12.486Z,42.50
2019-03-15T17:54:18.146Z,42.50
2019-03-15T17:57:23.803Z,42.60
2019-03-15T18:00:50.279Z,42.50
2019-03-15T18:03:55.943Z,42.60
2019-03-15T18:07:01.649Z,42.60
2019-03-15T18:10:07.508Z,42.50
2019-03-15T18:13:13.260Z,42.50
2019-03-15T18:16:18.892Z,42.50
2019-03-15T18:19:24.719Z,42.50
2019-03-15T18:22:30.431Z,42.50
2019-03-15T18:25:36.052Z,42.70
2019-03-15T18:28:41.731Z,42.60
2019-03-15T18:31:47.423Z,42.60
2019-03-15T18:34:54.742Z,42.60
2019-03-15T18:38:00.407Z,42.70
2019-03-15T18:41:06.273Z,42.70
2019-03-15T18:44:11.940Z,42.80
2019-03-15T18:47:17.635Z,42.70
2019-03-15T18:50:23.562Z,42.70
2019-03-15T18:53:30.915Z,42.70
2019-03-15T18:56:36.596Z,42.70
2019-03-15T18:59:42.366Z,42.70
2019-03-15T19:02:48.019Z,43.30
2019-03-15T19:05:53.635Z,43.70
2019-03-15T19:08:59.311Z,43.90
2019-03-15T19:12:04.963Z,43.90
2019-03-15T19:15:11.928Z,44.10
2019-03-15T19:18:17.646Z,44.10
2019-03-15T19:21:23.252Z,44.10
2019-03-15T19:24:29.028Z,44.00
2019-03-15T19:27:34.702Z,44.00
2019-03-15T19:30:40.420Z,44.60
2019-03-15T19:33:46.108Z,44.30
2019-03-15T19:36:53.428Z,44.20
2019-03-15T19:39:59.206Z,44.20
2019-03-15T19:43:04.887Z,43.90
2019-03-15T19:46:10.523Z,43.90
2019-03-15T19:49:16.219Z,43.90
2019-03-15T19:52:21.840Z,43.80
2019-03-15T19:55:27.483Z,43.60
2019-03-15T19:58:33.276Z,43.50
2019-03-15T20:01:39.107Z,43.40
2019-03-15T20:04:44.868Z,43.50
2019-03-15T20:07:50.582Z,43.30
2019-03-15T20:10:56.464Z,43.10
2019-03-15T20:14:02.327Z,43.00
2019-03-15T20:17:08.065Z,42.90
2019-03-15T20:20:13.943Z,42.80
2019-03-15T20:23:19.619Z,42.80
2019-03-15T20:26:25.366Z,42.80
2019-03-15T20:29:31.151Z,42.60
2019-03-15T20:32:36.872Z,42.50
2019-03-15T20:35:42.508Z,41.80
2019-03-15T20:38:48.297Z,41.20
2019-03-15T20:41:54.019Z,41.10
2019-03-15T20:44:59.836Z,41.00
2019-03-15T20:48:05.551Z,40.70
2019-03-15T20:51:12.342Z,40.80
2019-03-15T20:54:18.096Z,40.70
2019-03-15T20:57:23.839Z,40.80
2019-03-15T21:00:35.780Z,40.50
2019-03-15T21:03:36.987Z,40.40
2019-03-15T21:06:42.748Z,40.60
2019-03-15T21:09:48.427Z,40.70
2019-03-15T21:12:55.176Z,40.60
2019-03-15T21:16:00.967Z,40.50
2019-03-15T21:19:06.620Z,36.40
2019-03-15T21:22:13.941Z,37.10
2019-03-15T21:25:20.636Z,38.40
2019-03-15T21:28:26.312Z,38.90
2019-03-15T21:31:31.969Z,39.40
2019-03-15T21:34:37.611Z,39.60
2019-03-15T21:37:43.246Z,39.80
2019-03-15T21:40:48.902Z,39.80
2019-03-15T21:43:54.672Z,40.10
2019-03-15T21:47:00.327Z,39.90
2019-03-15T21:50:07.095Z,39.80
2019-03-15T21:53:12.744Z,40.20
2019-03-15T21:56:18.514Z,39.80
2019-03-15T21:59:24.216Z,40.10
2019-03-15T22:02:29.921Z,39.80
2019-03-15T22:05:35.575Z,40.20
2019-03-15T22:08:41.204Z,39.80
2019-03-15T22:11:46.964Z,40.00
2019-03-15T22:14:52.686Z,39.80
2019-03-15T22:18:10.476Z,39.70
2019-03-15T22:21:16.108Z,40.00
2019-03-15T22:24:22.167Z,39.90
2019-03-15T22:27:27.821Z,39.50
2019-03-15T22:30:33.523Z,39.90
2019-03-15T22:33:39.253Z,40.10
2019-03-15T22:41:16.468Z,40.10
2019-03-15T22:44:22.129Z,40.30
2019-03-15T22:47:27.955Z,40.30
2019-03-15T22:50:33.776Z,40.90
2019-03-15T22:53:39.391Z,41.20
2019-03-15T22:56:45.043Z,41.60
2019-03-15T22:59:50.667Z,42.30
2019-03-15T23:02:56.475Z,42.60
2019-03-15T23:06:02.156Z,42.40
2019-03-15T23:09:08.447Z,42.40
2019-03-15T23:12:14.124Z,42.40
2019-03-15T23:15:19.812Z,42.30
2019-03-15T23:18:25.533Z,42.10
2019-03-15T23:21:31.202Z,42.80
2019-03-15T23:24:36.814Z,42.00
2019-03-15T23:27:42.608Z,41.80
2019-03-15T23:30:48.380Z,41.80
2019-03-15T23:33:54.100Z,41.70
2019-03-15T23:36:59.755Z,41.70
2019-03-15T23:40:05.687Z,41.80
2019-03-15T23:43:11.413Z,41.80
2019-03-15T23:46:18.076Z,41.90
2019-03-15T23:49:23.700Z,41.60
2019-03-15T23:52:29.459Z,41.70
2019-03-15T23:55:35.090Z,41.60
2019-03-15T23:58:40.760Z,41.60
